Fairlee, Vermont
Current Conditions -  °F | °C
As of 3:53 PM on Saturday 25 Oct 2014 (Local Time) from KLEB Reporting Station
Few Clouds Few Clouds  
Wind Chill: 62°   Ceiling: Unl
Heat Index: 62°   Visibility: 10mi
Dew Point: 40°   Wind: 13mph
Humidity: 44%   Direction: 260°W
Pressure: 29.57"   Gusts: NA
Location:  43.91°N, 72.14°W
Report Text: KLEB 251953Z 26011KT 10SM FEW049 17/04 A2957 RMK AO2 SLP013 T01670044
Loading
Personal Weather Stations






























Interactive Weather Map
Tropical Storm Tracking
New forecast layout! Learn more

10-Day Weather Forecast

Advertisements
Track Severe Weather on mobile